createdAt,value
2022-10-05T00:00:29.847Z,96326.20
2022-10-05T00:03:17.693Z,96328.09
2022-10-05T00:05:45.998Z,96326.98
2022-10-05T00:08:18.569Z,96331.83
2022-10-05T00:10:46.763Z,96329.77
2022-10-05T00:13:16.196Z,96330.77
2022-10-05T00:15:44.451Z,96329.50
2022-10-05T00:18:16.909Z,96329.10
2022-10-05T00:20:45.247Z,96327.73
2022-10-05T00:23:20.167Z,96333.42
2022-10-05T00:25:48.043Z,96330.34
2022-10-05T00:28:18.224Z,96330.06
2022-10-05T00:30:46.185Z,96329.14
2022-10-05T00:33:14.311Z,96333.48
2022-10-05T00:35:42.257Z,96332.81
2022-10-05T00:38:10.101Z,96334.72
2022-10-05T00:40:47.049Z,96337.50
2022-10-05T00:43:15.078Z,96338.20
2022-10-05T00:46:03.208Z,96340.54
2022-10-05T00:48:37.211Z,96347.19
2022-10-05T00:51:23.457Z,96345.49
2022-10-05T00:53:59.659Z,96348.04
2022-10-05T00:56:28.280Z,96347.80
2022-10-05T00:59:08.636Z,96345.54
2022-10-05T01:01:55.275Z,96345.21
2022-10-05T01:04:41.798Z,96346.63
2022-10-05T01:07:12.646Z,96350.55
2022-10-05T01:09:43.578Z,96352.50
2022-10-05T01:12:26.761Z,96351.84
2022-10-05T01:15:13.110Z,96355.40
2022-10-05T01:18:03.297Z,96363.20
2022-10-05T01:20:51.398Z,96359.93
2022-10-05T01:23:19.164Z,96362.00
2022-10-05T01:25:54.998Z,96362.84
2022-10-05T01:28:28.358Z,96364.52
2022-10-05T01:31:17.596Z,96369.17
2022-10-05T01:33:45.525Z,96365.98
2022-10-05T01:36:34.783Z,96374.34
2022-10-05T01:39:04.065Z,96374.08
2022-10-05T01:41:40.701Z,96368.97
2022-10-05T01:44:08.581Z,96366.89
2022-10-05T01:46:44.000Z,96367.39
2022-10-05T01:49:12.183Z,96372.14
2022-10-05T01:51:39.993Z,96372.59
2022-10-05T01:54:30.557Z,96365.23
2022-10-05T01:57:01.506Z,96361.06
2022-10-05T01:59:36.570Z,96362.45
2022-10-05T02:02:10.208Z,96359.69
2022-10-05T02:05:01.563Z,96359.23
2022-10-05T02:07:38.793Z,96355.36
2022-10-05T02:10:23.940Z,96357.08
2022-10-05T02:12:55.380Z,96351.91
2022-10-05T02:15:27.375Z,96346.96
2022-10-05T02:17:59.581Z,96344.80
2022-10-05T02:20:29.062Z,96341.84
2022-10-05T02:23:00.350Z,96343.11
2022-10-05T02:25:30.701Z,96347.41
2022-10-05T02:28:04.394Z,96347.96
2022-10-05T02:30:35.048Z,96353.89
2022-10-05T02:33:07.673Z,96355.88
2022-10-05T02:35:35.622Z,96352.46
2022-10-05T02:38:29.632Z,96361.78
2022-10-05T02:41:06.601Z,96371.49
2022-10-05T02:43:40.268Z,96371.19
2022-10-05T02:46:08.772Z,96365.63
2022-10-05T02:48:44.690Z,96366.00
2022-10-05T02:51:15.567Z,96366.73
2022-10-05T02:53:51.730Z,96371.67
2022-10-05T02:56:26.586Z,96373.89
2022-10-05T02:59:03.431Z,96382.89
2022-10-05T03:01:44.532Z,96381.66
2022-10-05T03:04:27.894Z,96379.21
2022-10-05T03:07:04.887Z,96384.95
2022-10-05T03:09:37.356Z,96390.98
2022-10-05T03:12:18.115Z,96394.27
2022-10-05T03:14:54.087Z,96400.38
2022-10-05T03:17:28.783Z,96404.64
2022-10-05T03:19:59.860Z,96405.52
2022-10-05T03:22:33.925Z,96411.00
2022-10-05T03:25:14.504Z,96412.37
2022-10-05T03:27:49.103Z,96406.28
2022-10-05T03:30:26.615Z,96410.58
2022-10-05T03:33:30.008Z,96407.36
2022-10-05T03:36:24.524Z,96408.25
2022-10-05T03:39:02.106Z,96414.08
2022-10-05T03:41:36.248Z,96408.83
2022-10-05T03:44:23.102Z,96414.54
2022-10-05T03:46:59.985Z,96417.75
2022-10-05T03:49:35.533Z,96415.62
2022-10-05T03:52:12.623Z,96416.88
2022-10-05T03:54:46.979Z,96416.52
2022-10-05T03:57:20.730Z,96417.32
2022-10-05T04:00:01.015Z,96417.86
2022-10-05T04:02:36.927Z,96415.90
2022-10-05T04:05:12.501Z,96414.08
2022-10-05T04:07:46.947Z,96414.19
2022-10-05T04:10:20.137Z,96415.13
2022-10-05T04:12:51.288Z,96416.38
2022-10-05T04:15:25.661Z,96418.05
2022-10-05T04:18:00.842Z,96417.56
2022-10-05T04:20:32.170Z,96423.83
2022-10-05T04:23:19.198Z,96428.66
2022-10-05T04:25:52.763Z,96432.38
2022-10-05T04:28:40.088Z,96432.05
2022-10-05T04:31:11.261Z,96429.02
2022-10-05T04:33:39.340Z,96431.07
2022-10-05T04:36:10.411Z,96435.52
2022-10-05T04:38:57.270Z,96443.11
2022-10-05T04:41:28.723Z,96446.36
2022-10-05T04:44:06.100Z,96447.09
2022-10-05T04:46:37.208Z,96451.19
2022-10-05T04:49:05.134Z,96451.23
2022-10-05T04:51:51.911Z,96445.09
2022-10-05T04:54:43.627Z,96446.41
2022-10-05T04:57:16.610Z,96445.88
2022-10-05T04:59:55.524Z,96446.01
2022-10-05T05:02:32.609Z,96448.30
2022-10-05T05:05:05.509Z,96455.00
2022-10-05T05:07:39.593Z,96458.09
2022-10-05T05:10:22.621Z,96467.20
2022-10-05T05:12:50.644Z,96467.70
2022-10-05T05:15:21.877Z,96463.52
2022-10-05T05:17:50.423Z,96466.52
2022-10-05T05:20:21.103Z,96467.66
2022-10-05T05:22:55.465Z,96473.61
2022-10-05T05:25:24.253Z,96467.98
2022-10-05T05:27:58.414Z,96465.56
2022-10-05T05:30:27.080Z,96468.48
2022-10-05T05:33:08.498Z,96465.72
2022-10-05T05:35:36.443Z,96466.01
2022-10-05T05:38:14.964Z,96457.32
2022-10-05T05:40:48.970Z,96463.23
2022-10-05T05:43:19.846Z,96467.88
2022-10-05T05:46:14.780Z,96464.55
2022-10-05T05:48:47.523Z,96462.85
2022-10-05T05:51:18.586Z,96466.36
2022-10-05T05:53:50.536Z,96472.41
2022-10-05T05:56:27.152Z,96480.35
2022-10-05T05:58:57.898Z,96484.84
2022-10-05T06:01:33.672Z,96491.05
2022-10-05T06:04:11.185Z,96492.89
2022-10-05T06:06:41.485Z,96494.42
2022-10-05T06:09:18.920Z,96496.39
2022-10-05T06:12:09.072Z,96501.13
2022-10-05T06:14:40.627Z,96501.48
2022-10-05T06:17:21.534Z,96495.71
2022-10-05T06:19:53.519Z,96496.92
2022-10-05T06:22:28.152Z,96493.57
2022-10-05T06:25:15.639Z,96497.57
2022-10-05T06:27:57.984Z,96492.66
2022-10-05T06:30:31.257Z,96496.11
2022-10-05T06:33:10.427Z,96503.19
2022-10-05T06:35:57.185Z,96504.19
2022-10-05T06:38:43.072Z,96498.52
2022-10-05T06:41:29.778Z,96498.92
2022-10-05T06:44:06.391Z,96506.43
2022-10-05T06:47:00.365Z,96504.46
2022-10-05T06:50:08.050Z,96510.70
2022-10-05T06:53:17.523Z,96512.95
2022-10-05T06:56:04.622Z,96516.38
2022-10-05T06:58:39.117Z,96519.44
2022-10-05T07:01:10.668Z,96518.80
2022-10-05T07:03:39.045Z,96523.61
2022-10-05T07:06:13.925Z,96528.68
2022-10-05T07:09:04.067Z,96530.30
2022-10-05T07:11:57.376Z,96527.33
2022-10-05T07:14:30.888Z,96530.91
2022-10-05T07:17:22.847Z,96525.50
2022-10-05T07:19:56.186Z,96527.50
2022-10-05T07:22:42.724Z,96522.67
2022-10-05T07:25:16.534Z,96523.52
2022-10-05T07:28:03.389Z,96520.31
2022-10-05T07:30:36.385Z,96526.13
2022-10-05T07:33:12.306Z,96531.27
2022-10-05T07:35:49.423Z,96527.48
2022-10-05T07:38:25.113Z,96527.22
2022-10-05T07:41:14.053Z,96529.17
2022-10-05T07:44:00.876Z,96533.31
2022-10-05T07:46:34.028Z,96537.27
2022-10-05T07:49:03.458Z,96536.69
2022-10-05T07:51:37.295Z,96531.48
2022-10-05T07:54:15.175Z,96529.83
2022-10-05T07:56:45.948Z,96534.67
2022-10-05T07:59:20.891Z,96528.17
2022-10-05T08:01:52.156Z,96521.43
2022-10-05T08:04:24.253Z,96514.36
2022-10-05T08:07:00.027Z,96515.36
2022-10-05T08:09:28.050Z,96523.23
2022-10-05T08:12:08.574Z,96521.88
2022-10-05T08:14:55.193Z,96516.02
2022-10-05T08:17:26.508Z,96531.19
2022-10-05T08:20:00.594Z,96536.91
2022-10-05T08:22:34.833Z,96547.21
2022-10-05T08:25:04.072Z,96562.08
2022-10-05T08:27:50.463Z,96566.61
2022-10-05T08:30:19.140Z,96555.41
2022-10-05T08:32:55.875Z,96554.59
2022-10-05T08:35:37.787Z,96554.50
2022-10-05T08:38:12.289Z,96555.39
2022-10-05T08:40:51.684Z,96559.23
2022-10-05T08:43:35.041Z,96566.72
2022-10-05T08:46:03.315Z,96565.42
2022-10-05T08:48:40.249Z,96571.77
2022-10-05T08:51:26.938Z,96583.70
2022-10-05T08:54:13.936Z,96586.02
2022-10-05T08:56:44.910Z,96587.04
2022-10-05T08:59:17.614Z,96586.54
2022-10-05T09:02:04.078Z,96588.48
2022-10-05T09:04:50.522Z,96593.47
2022-10-05T09:07:45.389Z,96580.14
2022-10-05T09:10:31.526Z,96586.45
2022-10-05T09:13:16.673Z,96588.13
2022-10-05T09:15:50.463Z,96588.96
2022-10-05T09:18:24.200Z,96594.09
2022-10-05T09:21:02.757Z,96601.26
2022-10-05T09:23:39.276Z,96597.94
2022-10-05T09:26:09.304Z,96600.05
2022-10-05T09:28:40.309Z,96604.17
2022-10-05T09:31:17.541Z,96599.59
2022-10-05T09:34:02.597Z,96594.61
2022-10-05T09:36:48.993Z,96574.52
2022-10-05T09:39:40.586Z,96572.54
2022-10-05T09:42:27.267Z,96574.08
2022-10-05T09:45:17.770Z,96559.17
2022-10-05T09:47:59.915Z,96550.27
2022-10-05T09:50:32.249Z,96539.14
2022-10-05T09:53:06.048Z,96535.66
2022-10-05T09:55:39.416Z,96532.94
2022-10-05T09:58:28.414Z,96525.98
2022-10-05T10:01:09.749Z,96524.73
2022-10-05T10:04:01.848Z,96531.57
2022-10-05T10:06:29.721Z,96532.58
2022-10-05T10:09:04.373Z,96532.67
2022-10-05T10:11:32.302Z,96527.30
2022-10-05T10:14:09.490Z,96527.78
2022-10-05T10:16:50.803Z,96536.11
2022-10-05T10:19:36.629Z,96542.23
2022-10-05T10:22:10.892Z,96543.55
2022-10-05T10:24:57.616Z,96547.95
2022-10-05T10:27:36.293Z,96552.38
2022-10-05T10:30:13.303Z,96558.79
2022-10-05T10:33:00.067Z,96554.05
2022-10-05T10:35:32.856Z,96554.48
2022-10-05T10:38:06.823Z,96545.27
2022-10-05T10:40:35.069Z,96543.30
2022-10-05T10:43:22.421Z,96538.64
2022-10-05T10:46:09.216Z,96535.37
2022-10-05T10:48:43.170Z,96535.14
2022-10-05T10:51:30.700Z,96533.16
2022-10-05T10:54:04.611Z,96533.23
2022-10-05T10:56:51.622Z,96538.55
2022-10-05T10:59:27.974Z,96535.64
2022-10-05T11:02:17.584Z,96529.95
2022-10-05T11:04:57.780Z,96524.52
2022-10-05T11:07:25.695Z,96525.83
2022-10-05T11:09:53.857Z,96520.84
2022-10-05T11:12:39.974Z,96517.95
2022-10-05T11:15:28.153Z,96510.92
2022-10-05T11:18:06.829Z,96518.91
2022-10-05T11:21:13.544Z,96519.36
2022-10-05T11:23:57.567Z,96519.55
2022-10-05T11:26:44.087Z,96517.00
2022-10-05T11:29:11.939Z,96513.70
2022-10-05T11:31:45.766Z,96514.36
2022-10-05T11:34:32.514Z,96519.23
2022-10-05T11:37:09.740Z,96519.05
2022-10-05T11:39:44.854Z,96516.34
2022-10-05T11:42:15.861Z,96518.48
2022-10-05T11:44:50.604Z,96521.15
2022-10-05T11:47:24.466Z,96523.92
2022-10-05T11:49:53.676Z,96527.56
2022-10-05T11:52:26.850Z,96520.52
2022-10-05T11:55:16.173Z,96524.23
2022-10-05T11:57:58.502Z,96525.35
2022-10-05T12:00:35.613Z,96522.27
2022-10-05T12:03:16.683Z,96519.05
2022-10-05T12:05:53.976Z,96520.89
2022-10-05T12:08:27.932Z,96517.35
2022-10-05T12:10:58.898Z,96512.23
2022-10-05T12:13:38.731Z,96512.46
2022-10-05T12:16:06.923Z,96504.73
2022-10-05T12:18:46.820Z,96504.09
2022-10-05T12:21:22.862Z,96505.25
2022-10-05T12:23:57.752Z,96512.48
2022-10-05T12:26:37.886Z,96514.16
2022-10-05T12:29:26.488Z,96514.34
2022-10-05T12:32:00.700Z,96515.04
2022-10-05T12:34:48.835Z,96515.47
2022-10-05T12:37:36.608Z,96515.65
2022-10-05T12:40:08.614Z,96505.44
2022-10-05T12:42:42.098Z,96498.37
2022-10-05T12:45:20.658Z,96499.15
2022-10-05T12:48:00.625Z,96504.19
2022-10-05T12:50:35.308Z,96506.30
2022-10-05T12:53:03.126Z,96501.21
2022-10-05T12:55:40.228Z,96500.11
2022-10-05T12:58:14.174Z,96504.55
2022-10-05T13:00:53.230Z,96500.70
2022-10-05T13:03:25.312Z,96496.86
2022-10-05T13:06:02.437Z,96497.72
2022-10-05T13:08:45.735Z,96496.92
2022-10-05T13:11:17.070Z,96499.43
2022-10-05T13:13:56.433Z,96499.84
2022-10-05T13:16:40.738Z,96501.61
2022-10-05T13:19:27.557Z,96498.02
2022-10-05T13:22:01.722Z,96497.58
2022-10-05T13:24:45.836Z,96492.17
2022-10-05T13:27:27.757Z,96491.80
2022-10-05T13:30:02.987Z,96489.40
2022-10-05T13:32:34.384Z,96478.64
2022-10-05T13:35:17.748Z,96476.92
2022-10-05T13:38:06.683Z,96474.55
2022-10-05T13:40:49.724Z,96470.77
2022-10-05T13:43:23.948Z,96468.80
2022-10-05T13:45:58.391Z,96467.48
2022-10-05T13:48:41.473Z,96467.57
2022-10-05T13:51:18.456Z,96472.94
2022-10-05T13:53:49.345Z,96474.48
2022-10-05T13:56:17.197Z,96477.58
2022-10-05T13:58:51.918Z,96478.81
2022-10-05T14:01:55.356Z,96480.52
2022-10-05T14:04:24.787Z,96466.10
2022-10-05T14:06:53.339Z,96465.93
2022-10-05T14:09:31.741Z,96467.08
2022-10-05T14:12:03.022Z,96464.13
2022-10-05T14:14:42.656Z,96459.04
2022-10-05T14:17:14.518Z,96459.89
2022-10-05T14:19:46.621Z,96460.15
2022-10-05T14:22:24.830Z,96466.37
2022-10-05T14:25:07.860Z,96475.03
2022-10-05T14:27:48.267Z,96469.64
2022-10-05T14:30:16.111Z,96468.13
2022-10-05T14:32:59.584Z,96468.40
2022-10-05T14:35:29.394Z,96464.30
2022-10-05T14:38:01.673Z,96467.61
2022-10-05T14:40:29.621Z,96462.47
2022-10-05T14:42:58.433Z,96464.91
2022-10-05T14:45:29.851Z,96464.68
2022-10-05T14:48:01.670Z,96470.54
2022-10-05T14:50:30.946Z,96471.23
2022-10-05T14:53:14.402Z,96473.15
2022-10-05T14:55:45.398Z,96473.50
2022-10-05T14:58:23.852Z,96470.83
2022-10-05T15:00:59.703Z,96471.77
2022-10-05T15:03:37.262Z,96467.55
2022-10-05T15:06:06.272Z,96472.58
2022-10-05T15:08:53.276Z,96472.46
2022-10-05T15:11:46.618Z,96471.40
2022-10-05T15:14:21.759Z,96477.94
2022-10-05T15:16:58.819Z,96483.39
2022-10-05T15:19:55.608Z,96490.10
2022-10-05T15:22:26.701Z,96490.58
2022-10-05T15:24:57.836Z,96494.84
2022-10-05T15:27:37.204Z,96500.71
2022-10-05T15:30:05.232Z,96496.05
2022-10-05T15:32:56.438Z,96500.98
2022-10-05T15:35:27.384Z,96505.35
2022-10-05T15:37:59.859Z,96513.21
2022-10-05T15:40:46.481Z,96513.98
2022-10-05T15:43:17.386Z,96514.69
2022-10-05T15:45:52.962Z,96513.02
2022-10-05T15:48:25.428Z,96514.37
2022-10-05T15:51:07.203Z,96506.30
2022-10-05T15:53:43.663Z,96503.11
2022-10-05T15:56:25.614Z,96501.91
2022-10-05T15:58:55.598Z,96505.09
2022-10-05T16:01:32.653Z,96512.50
2022-10-05T16:04:04.858Z,96514.54
2022-10-05T16:07:02.988Z,96518.28
2022-10-05T16:09:43.202Z,96519.84
2022-10-05T16:12:18.669Z,96524.33
2022-10-05T16:15:07.885Z,96523.83
2022-10-05T16:17:55.881Z,96531.48
2022-10-05T16:20:23.904Z,96527.90
2022-10-05T16:23:06.783Z,96533.19
2022-10-05T16:25:53.452Z,96535.85
2022-10-05T16:28:24.689Z,96538.98
2022-10-05T16:30:58.858Z,96541.68
2022-10-05T16:33:32.994Z,96544.12
2022-10-05T16:36:05.205Z,96551.06
2022-10-05T16:38:33.556Z,96551.69
2022-10-05T16:41:04.234Z,96551.53
2022-10-05T16:43:34.950Z,96553.04
2022-10-05T16:46:10.305Z,96559.09
2022-10-05T16:48:38.469Z,96563.08
2022-10-05T16:51:07.617Z,96562.94
2022-10-05T16:53:39.799Z,96568.00
2022-10-05T16:56:15.751Z,96573.27
2022-10-05T16:58:43.564Z,96570.60
2022-10-05T17:01:29.768Z,96574.06
2022-10-05T17:03:57.566Z,96575.29
2022-10-05T17:06:31.570Z,96577.89
2022-10-05T17:09:19.636Z,96586.98
2022-10-05T17:11:50.212Z,96592.59
2022-10-05T17:14:21.004Z,96589.56
2022-10-05T17:17:04.509Z,96589.41
2022-10-05T17:19:33.572Z,96587.38
2022-10-05T17:22:20.471Z,96584.58
2022-10-05T17:24:51.103Z,96581.85
2022-10-05T17:27:50.831Z,96576.17
2022-10-05T17:30:23.873Z,96579.90
2022-10-05T17:32:57.836Z,96576.73
2022-10-05T17:35:47.129Z,96576.65
2022-10-05T17:38:14.938Z,96572.42
2022-10-05T17:41:05.561Z,96575.81
2022-10-05T17:43:34.050Z,96575.41
2022-10-05T17:46:06.811Z,96582.50
2022-10-05T17:48:44.184Z,96581.70
2022-10-05T17:51:31.472Z,96584.61
2022-10-05T17:54:18.220Z,96587.64
2022-10-05T17:56:49.226Z,96591.73
2022-10-05T17:59:35.613Z,96598.33
2022-10-05T18:02:30.556Z,96595.45
2022-10-05T18:05:05.198Z,96594.38
2022-10-05T18:07:34.159Z,96601.80
2022-10-05T18:10:17.416Z,96596.89
2022-10-05T18:12:47.523Z,96596.50
2022-10-05T18:15:21.271Z,96597.79
2022-10-05T18:17:57.521Z,96595.39
2022-10-05T18:20:31.643Z,96594.59
2022-10-05T18:23:01.054Z,96596.66
2022-10-05T18:25:39.226Z,96598.98
2022-10-05T18:28:16.144Z,96589.49
2022-10-05T18:31:02.933Z,96593.25
2022-10-05T18:33:57.406Z,96597.02
2022-10-05T18:36:38.192Z,96598.48
2022-10-05T18:39:26.392Z,96602.80
2022-10-05T18:42:03.553Z,96598.65
2022-10-05T18:44:40.475Z,96598.66
2022-10-05T18:47:08.276Z,96602.92
2022-10-05T18:49:45.175Z,96599.81
2022-10-05T18:52:23.000Z,96601.59
2022-10-05T18:54:50.858Z,96597.52
2022-10-05T18:57:22.189Z,96595.12
2022-10-05T18:59:57.604Z,96595.52
2022-10-05T19:02:36.466Z,96595.77
2022-10-05T19:05:35.772Z,96598.01
2022-10-05T19:08:22.710Z,96597.40
2022-10-05T19:10:55.279Z,96595.05
2022-10-05T19:13:29.129Z,96599.48
2022-10-05T19:16:15.731Z,96602.21
2022-10-05T19:18:52.779Z,96599.29
2022-10-05T19:21:24.707Z,96597.44
2022-10-05T19:23:58.747Z,96595.48
2022-10-05T19:26:26.570Z,96592.83
2022-10-05T19:29:13.144Z,96589.09
2022-10-05T19:31:48.181Z,96583.27
2022-10-05T19:34:34.406Z,96583.53
2022-10-05T19:37:18.203Z,96585.13
2022-10-05T19:40:03.515Z,96584.61
2022-10-05T19:42:46.241Z,96587.15
2022-10-05T19:45:46.309Z,96587.31
2022-10-05T19:48:21.783Z,96595.77
2022-10-05T19:50:54.759Z,96597.58
2022-10-05T19:53:30.842Z,96597.95
2022-10-05T19:56:10.870Z,96598.30
2022-10-05T19:58:39.717Z,96593.59
2022-10-05T20:01:07.913Z,96590.64
2022-10-05T20:03:38.051Z,96593.05
2022-10-05T20:06:06.791Z,96591.94
2022-10-05T20:08:41.974Z,96590.72
2022-10-05T20:11:17.241Z,96589.66
2022-10-05T20:14:10.257Z,96583.92
2022-10-05T20:16:56.427Z,96585.05
2022-10-05T20:19:47.915Z,96590.00
2022-10-05T20:22:36.589Z,96596.46
2022-10-05T20:25:06.417Z,96596.33
2022-10-05T20:27:36.803Z,96590.30
2022-10-05T20:30:05.675Z,96588.07
2022-10-05T20:32:34.024Z,96587.02
2022-10-05T20:35:01.894Z,96591.79
2022-10-05T20:37:30.244Z,96590.59
2022-10-05T20:39:58.126Z,96584.66
2022-10-05T20:42:26.752Z,96586.61
2022-10-05T20:44:56.967Z,96582.02
2022-10-05T20:47:25.877Z,96581.42
2022-10-05T20:49:54.624Z,96579.14
2022-10-05T20:52:23.273Z,96574.89
2022-10-05T20:54:53.945Z,96574.73
2022-10-05T20:57:24.018Z,96575.66
2022-10-05T20:59:51.840Z,96578.85
2022-10-05T21:02:19.705Z,96581.44
2022-10-05T21:04:47.879Z,96580.02
2022-10-05T21:07:16.634Z,96583.09
2022-10-05T21:09:46.532Z,96582.76
2022-10-05T21:12:14.605Z,96575.90
2022-10-05T21:14:42.518Z,96581.45
2022-10-05T21:17:12.044Z,96573.33
2022-10-05T21:19:40.423Z,96573.48
2022-10-05T21:22:09.321Z,96574.08
2022-10-05T21:24:38.646Z,96571.92
2022-10-05T21:27:07.214Z,96563.71
2022-10-05T21:29:36.685Z,96568.59
2022-10-05T21:32:08.641Z,96568.27
2022-10-05T21:34:36.994Z,96568.95
2022-10-05T21:37:04.923Z,96565.30
2022-10-05T21:39:33.824Z,96566.73
2022-10-05T21:42:06.656Z,96568.52
2022-10-05T21:44:34.483Z,96565.20
2022-10-05T21:47:02.569Z,96563.18
2022-10-05T21:49:31.182Z,96562.02
2022-10-05T21:52:00.886Z,96556.22
2022-10-05T21:54:28.947Z,96554.52
2022-10-05T21:56:57.562Z,96557.27
2022-10-05T21:59:27.925Z,96554.73
2022-10-05T22:01:55.786Z,96552.93
2022-10-05T22:04:23.951Z,96555.40
2022-10-05T22:06:51.810Z,96550.57
2022-10-05T22:09:19.814Z,96551.45
2022-10-05T22:11:48.218Z,96548.16
2022-10-05T22:14:16.179Z,96546.67
2022-10-05T22:16:44.214Z,96545.86
2022-10-05T22:19:16.693Z,96547.77
2022-10-05T22:21:44.711Z,96550.20
2022-10-05T22:24:12.595Z,96546.14
2022-10-05T22:26:42.140Z,96550.86
2022-10-05T22:29:09.969Z,96547.45
2022-10-05T22:31:43.022Z,96544.38
2022-10-05T22:34:11.071Z,96542.58
2022-10-05T22:36:38.975Z,96544.23
2022-10-05T22:39:06.831Z,96541.47
2022-10-05T22:41:34.952Z,96541.10
2022-10-05T22:44:03.139Z,96540.44
2022-10-05T22:46:31.405Z,96537.59
2022-10-05T22:48:59.570Z,96536.17
2022-10-05T22:51:27.412Z,96538.63
2022-10-05T22:53:55.320Z,96539.73
2022-10-05T22:56:23.246Z,96540.70
2022-10-05T22:58:51.461Z,96541.92
2022-10-05T23:01:19.765Z,96536.89
2022-10-05T23:03:47.812Z,96538.08
2022-10-05T23:06:19.074Z,96542.10
2022-10-05T23:08:47.183Z,96537.84
2022-10-05T23:11:17.429Z,96540.31
2022-10-05T23:13:45.274Z,96539.34
2022-10-05T23:16:14.500Z,96543.14
2022-10-05T23:18:42.711Z,96542.92
2022-10-05T23:21:11.549Z,96545.66
2022-10-05T23:23:40.466Z,96544.00
2022-10-05T23:26:23.897Z,96542.92
2022-10-05T23:28:51.950Z,96539.66
2022-10-05T23:31:21.893Z,96543.89
2022-10-05T23:33:49.894Z,96540.87
2022-10-05T23:36:19.380Z,96542.56
2022-10-05T23:38:47.623Z,96540.55
2022-10-05T23:41:19.991Z,96544.70
2022-10-05T23:43:48.181Z,96541.36
2022-10-05T23:46:17.680Z,96541.11
2022-10-05T23:48:45.750Z,96537.70
2022-10-05T23:51:15.557Z,96536.33
2022-10-05T23:53:44.018Z,96540.83
2022-10-05T23:56:13.013Z,96538.47
2022-10-05T23:58:41.128Z,96536.89
